sensor_id;sensor_type;location;lat;lon;timestamp;P1;durP1;ratioP1;P2;durP2;ratioP2
17451;SDS011;8843;48.838;9.324;2023-02-13T00:01:12;13.20;;;9.00;;
17451;SDS011;8843;48.838;9.324;2023-02-13T00:03:39;13.93;;;9.23;;
17451;SDS011;8843;48.838;9.324;2023-02-13T00:06:06;14.70;;;9.53;;
17451;SDS011;8843;48.838;9.324;2023-02-13T00:08:33;12.53;;;8.80;;
17451;SDS011;8843;48.838;9.324;2023-02-13T00:11:00;9.97;;;7.90;;
17451;SDS011;8843;48.838;9.324;2023-02-13T00:13:27;11.80;;;8.40;;
17451;SDS011;8843;48.838;9.324;2023-02-13T00:15:56;11.63;;;8.10;;
17451;SDS011;8843;48.838;9.324;2023-02-13T00:18:24;10.97;;;8.03;;
17451;SDS011;8843;48.838;9.324;2023-02-13T00:20:58;12.53;;;8.60;;
17451;SDS011;8843;48.838;9.324;2023-02-13T00:23:26;13.20;;;8.67;;
17451;SDS011;8843;48.838;9.324;2023-02-13T00:25:54;14.40;;;8.63;;
17451;SDS011;8843;48.838;9.324;2023-02-13T00:28:21;11.97;;;7.67;;
17451;SDS011;8843;48.838;9.324;2023-02-13T00:30:48;14.50;;;9.27;;
17451;SDS011;8843;48.838;9.324;2023-02-13T00:33:16;12.27;;;8.83;;
17451;SDS011;8843;48.838;9.324;2023-02-13T00:35:43;14.33;;;8.07;;
17451;SDS011;8843;48.838;9.324;2023-02-13T00:38:10;11.03;;;8.50;;
17451;SDS011;8843;48.838;9.324;2023-02-13T00:40:37;13.57;;;8.83;;
17451;SDS011;8843;48.838;9.324;2023-02-13T00:43:04;12.30;;;9.00;;
17451;SDS011;8843;48.838;9.324;2023-02-13T00:45:30;14.00;;;9.80;;
17451;SDS011;8843;48.838;9.324;2023-02-13T00:47:57;14.20;;;9.43;;
17451;SDS011;8843;48.838;9.324;2023-02-13T00:50:25;12.70;;;8.07;;
17451;SDS011;8843;48.838;9.324;2023-02-13T00:52:52;10.70;;;7.80;;
17451;SDS011;8843;48.838;9.324;2023-02-13T00:55:19;11.10;;;7.83;;
17451;SDS011;8843;48.838;9.324;2023-02-13T00:57:46;12.40;;;8.77;;
17451;SDS011;8843;48.838;9.324;2023-02-13T01:00:13;13.63;;;8.70;;
17451;SDS011;8843;48.838;9.324;2023-02-13T01:02:41;12.53;;;8.63;;
17451;SDS011;8843;48.838;9.324;2023-02-13T01:05:08;11.97;;;8.63;;
17451;SDS011;8843;48.838;9.324;2023-02-13T01:07:36;10.90;;;7.77;;
17451;SDS011;8843;48.838;9.324;2023-02-13T01:10:03;12.27;;;8.23;;
17451;SDS011;8843;48.838;9.324;2023-02-13T01:12:31;9.73;;;7.70;;
17451;SDS011;8843;48.838;9.324;2023-02-13T01:14:58;10.60;;;7.67;;
17451;SDS011;8843;48.838;9.324;2023-02-13T01:17:25;10.10;;;7.37;;
17451;SDS011;8843;48.838;9.324;2023-02-13T01:19:52;11.90;;;7.80;;
17451;SDS011;8843;48.838;9.324;2023-02-13T01:22:19;13.33;;;8.63;;
17451;SDS011;8843;48.838;9.324;2023-02-13T01:24:47;10.67;;;8.07;;
17451;SDS011;8843;48.838;9.324;2023-02-13T01:27:14;9.70;;;7.47;;
17451;SDS011;8843;48.838;9.324;2023-02-13T01:29:41;11.80;;;8.63;;
17451;SDS011;8843;48.838;9.324;2023-02-13T01:32:08;11.87;;;7.40;;
17451;SDS011;8843;48.838;9.324;2023-02-13T01:34:35;13.53;;;9.43;;
17451;SDS011;8843;48.838;9.324;2023-02-13T01:37:01;13.40;;;8.13;;
17451;SDS011;8843;48.838;9.324;2023-02-13T01:39:28;12.77;;;8.60;;
17451;SDS011;8843;48.838;9.324;2023-02-13T01:41:57;11.10;;;8.30;;
17451;SDS011;8843;48.838;9.324;2023-02-13T01:47:15;13.03;;;8.80;;
17451;SDS011;8843;48.838;9.324;2023-02-13T01:49:49;10.93;;;8.20;;
17451;SDS011;8843;48.838;9.324;2023-02-13T01:52:23;10.10;;;7.87;;
17451;SDS011;8843;48.838;9.324;2023-02-13T01:54:51;10.83;;;7.90;;
17451;SDS011;8843;48.838;9.324;2023-02-13T01:57:20;15.30;;;8.53;;
17451;SDS011;8843;48.838;9.324;2023-02-13T01:59:52;12.87;;;7.90;;
17451;SDS011;8843;48.838;9.324;2023-02-13T02:02:22;10.83;;;7.77;;
17451;SDS011;8843;48.838;9.324;2023-02-13T02:04:49;12.67;;;7.93;;
17451;SDS011;8843;48.838;9.324;2023-02-13T02:07:18;12.73;;;8.47;;
17451;SDS011;8843;48.838;9.324;2023-02-13T02:09:48;11.40;;;8.47;;
17451;SDS011;8843;48.838;9.324;2023-02-13T02:12:19;11.23;;;8.50;;
17451;SDS011;8843;48.838;9.324;2023-02-13T02:14:51;11.80;;;7.80;;
17451;SDS011;8843;48.838;9.324;2023-02-13T02:17:19;13.13;;;8.03;;
17451;SDS011;8843;48.838;9.324;2023-02-13T02:19:48;10.57;;;8.40;;
17451;SDS011;8843;48.838;9.324;2023-02-13T02:22:28;11.90;;;8.83;;
17451;SDS011;8843;48.838;9.324;2023-02-13T02:28:33;11.70;;;8.23;;
17451;SDS011;8843;48.838;9.324;2023-02-13T02:31:41;10.17;;;7.50;;
17451;SDS011;8843;48.838;9.324;2023-02-13T02:34:22;13.33;;;8.70;;
17451;SDS011;8843;48.838;9.324;2023-02-13T02:37:00;11.13;;;7.67;;
17451;SDS011;8843;48.838;9.324;2023-02-13T02:39:38;12.17;;;8.57;;
17451;SDS011;8843;48.838;9.324;2023-02-13T02:42:14;12.10;;;8.40;;
17451;SDS011;8843;48.838;9.324;2023-02-13T02:44:50;12.83;;;8.47;;
17451;SDS011;8843;48.838;9.324;2023-02-13T02:47:25;12.57;;;8.73;;
17451;SDS011;8843;48.838;9.324;2023-02-13T02:50:15;10.97;;;8.17;;
17451;SDS011;8843;48.838;9.324;2023-02-13T02:52:56;11.03;;;8.17;;
17451;SDS011;8843;48.838;9.324;2023-02-13T02:55:34;14.50;;;9.40;;
17451;SDS011;8843;48.838;9.324;2023-02-13T02:58:07;11.60;;;7.67;;
17451;SDS011;8843;48.838;9.324;2023-02-13T03:00:58;12.43;;;8.10;;
17451;SDS011;8843;48.838;9.324;2023-02-13T03:03:45;11.57;;;8.20;;
17451;SDS011;8843;48.838;9.324;2023-02-13T03:06:32;12.27;;;8.40;;
17451;SDS011;8843;48.838;9.324;2023-02-13T03:09:03;9.97;;;7.20;;
17451;SDS011;8843;48.838;9.324;2023-02-13T03:11:53;11.03;;;8.03;;
17451;SDS011;8843;48.838;9.324;2023-02-13T03:14:38;10.90;;;7.30;;
17451;SDS011;8843;48.838;9.324;2023-02-13T03:17:07;11.87;;;8.43;;
17451;SDS011;8843;48.838;9.324;2023-02-13T03:20:03;13.30;;;8.30;;
17451;SDS011;8843;48.838;9.324;2023-02-13T03:23:19;11.50;;;8.10;;
17451;SDS011;8843;48.838;9.324;2023-02-13T03:25:56;13.07;;;7.80;;
17451;SDS011;8843;48.838;9.324;2023-02-13T03:28:46;11.97;;;8.03;;
17451;SDS011;8843;48.838;9.324;2023-02-13T03:31:41;12.13;;;7.77;;
17451;SDS011;8843;48.838;9.324;2023-02-13T03:34:14;12.30;;;8.20;;
17451;SDS011;8843;48.838;9.324;2023-02-13T03:36:47;11.87;;;8.10;;
17451;SDS011;8843;48.838;9.324;2023-02-13T03:39:43;9.80;;;7.83;;
17451;SDS011;8843;48.838;9.324;2023-02-13T03:42:17;9.70;;;7.17;;
17451;SDS011;8843;48.838;9.324;2023-02-13T03:44:50;11.13;;;7.10;;
17451;SDS011;8843;48.838;9.324;2023-02-13T03:47:34;14.43;;;8.23;;
17451;SDS011;8843;48.838;9.324;2023-02-13T03:50:02;12.43;;;8.27;;
17451;SDS011;8843;48.838;9.324;2023-02-13T03:52:31;11.87;;;7.93;;
17451;SDS011;8843;48.838;9.324;2023-02-13T03:55:04;10.63;;;7.23;;
17451;SDS011;8843;48.838;9.324;2023-02-13T03:57:52;11.43;;;7.83;;
17451;SDS011;8843;48.838;9.324;2023-02-13T04:00:42;10.27;;;6.97;;
17451;SDS011;8843;48.838;9.324;2023-02-13T04:03:13;12.57;;;8.20;;
17451;SDS011;8843;48.838;9.324;2023-02-13T04:05:46;13.00;;;8.13;;
17451;SDS011;8843;48.838;9.324;2023-02-13T04:08:19;11.13;;;7.77;;
17451;SDS011;8843;48.838;9.324;2023-02-13T04:10:48;11.07;;;7.80;;
17451;SDS011;8843;48.838;9.324;2023-02-13T04:13:19;14.00;;;8.37;;
17451;SDS011;8843;48.838;9.324;2023-02-13T04:15:52;12.67;;;8.47;;
17451;SDS011;8843;48.838;9.324;2023-02-13T04:18:22;11.43;;;7.60;;
17451;SDS011;8843;48.838;9.324;2023-02-13T04:20:52;9.90;;;6.93;;
17451;SDS011;8843;48.838;9.324;2023-02-13T04:23:20;10.93;;;7.83;;
17451;SDS011;8843;48.838;9.324;2023-02-13T04:25:48;10.83;;;7.33;;
17451;SDS011;8843;48.838;9.324;2023-02-13T04:28:17;13.40;;;8.37;;
17451;SDS011;8843;48.838;9.324;2023-02-13T04:30:44;12.63;;;8.00;;
17451;SDS011;8843;48.838;9.324;2023-02-13T04:33:11;11.87;;;7.47;;
17451;SDS011;8843;48.838;9.324;2023-02-13T04:35:38;15.27;;;8.80;;
17451;SDS011;8843;48.838;9.324;2023-02-13T04:38:05;13.20;;;7.93;;
17451;SDS011;8843;48.838;9.324;2023-02-13T04:40:33;12.33;;;8.10;;
17451;SDS011;8843;48.838;9.324;2023-02-13T04:43:00;11.57;;;7.30;;
17451;SDS011;8843;48.838;9.324;2023-02-13T04:45:27;11.97;;;8.13;;
17451;SDS011;8843;48.838;9.324;2023-02-13T04:47:54;11.07;;;7.77;;
17451;SDS011;8843;48.838;9.324;2023-02-13T04:50:22;13.67;;;7.93;;
17451;SDS011;8843;48.838;9.324;2023-02-13T04:52:52;9.63;;;7.17;;
17451;SDS011;8843;48.838;9.324;2023-02-13T04:55:20;10.43;;;7.90;;
17451;SDS011;8843;48.838;9.324;2023-02-13T04:57:49;12.97;;;7.70;;
17451;SDS011;8843;48.838;9.324;2023-02-13T05:00:17;13.20;;;7.50;;
17451;SDS011;8843;48.838;9.324;2023-02-13T05:02:45;9.37;;;6.60;;
17451;SDS011;8843;48.838;9.324;2023-02-13T05:05:12;13.83;;;7.37;;
17451;SDS011;8843;48.838;9.324;2023-02-13T05:07:39;11.87;;;8.30;;
17451;SDS011;8843;48.838;9.324;2023-02-13T05:10:07;14.33;;;8.30;;
17451;SDS011;8843;48.838;9.324;2023-02-13T05:12:34;12.90;;;8.50;;
17451;SDS011;8843;48.838;9.324;2023-02-13T05:15:03;12.03;;;7.40;;
17451;SDS011;8843;48.838;9.324;2023-02-13T05:17:30;10.17;;;7.60;;
17451;SDS011;8843;48.838;9.324;2023-02-13T05:19:57;12.63;;;7.93;;
17451;SDS011;8843;48.838;9.324;2023-02-13T05:22:24;11.57;;;7.67;;
17451;SDS011;8843;48.838;9.324;2023-02-13T05:25:08;13.97;;;9.53;;
17451;SDS011;8843;48.838;9.324;2023-02-13T05:27:35;11.90;;;7.90;;
17451;SDS011;8843;48.838;9.324;2023-02-13T05:30:04;11.60;;;8.00;;
17451;SDS011;8843;48.838;9.324;2023-02-13T05:32:31;12.10;;;8.53;;
17451;SDS011;8843;48.838;9.324;2023-02-13T05:34:58;12.40;;;8.23;;
17451;SDS011;8843;48.838;9.324;2023-02-13T05:37:25;12.77;;;7.30;;
17451;SDS011;8843;48.838;9.324;2023-02-13T05:39:52;11.33;;;6.77;;
17451;SDS011;8843;48.838;9.324;2023-02-13T05:42:19;14.60;;;8.47;;
17451;SDS011;8843;48.838;9.324;2023-02-13T05:44:46;10.87;;;6.90;;
17451;SDS011;8843;48.838;9.324;2023-02-13T05:47:14;13.40;;;8.10;;
17451;SDS011;8843;48.838;9.324;2023-02-13T05:49:41;12.30;;;7.70;;
17451;SDS011;8843;48.838;9.324;2023-02-13T05:52:08;10.57;;;8.03;;
17451;SDS011;8843;48.838;9.324;2023-02-13T05:54:34;12.57;;;8.27;;
17451;SDS011;8843;48.838;9.324;2023-02-13T05:57:02;13.03;;;8.10;;
17451;SDS011;8843;48.838;9.324;2023-02-13T05:59:29;14.57;;;8.33;;
17451;SDS011;8843;48.838;9.324;2023-02-13T06:01:56;14.83;;;9.20;;
17451;SDS011;8843;48.838;9.324;2023-02-13T06:04:24;14.30;;;8.77;;
17451;SDS011;8843;48.838;9.324;2023-02-13T06:06:51;12.67;;;7.90;;
17451;SDS011;8843;48.838;9.324;2023-02-13T06:09:18;12.77;;;8.13;;
17451;SDS011;8843;48.838;9.324;2023-02-13T06:11:45;13.50;;;9.03;;
17451;SDS011;8843;48.838;9.324;2023-02-13T06:14:12;14.10;;;9.10;;
17451;SDS011;8843;48.838;9.324;2023-02-13T06:16:39;14.10;;;9.90;;
17451;SDS011;8843;48.838;9.324;2023-02-13T06:19:06;15.37;;;8.77;;
17451;SDS011;8843;48.838;9.324;2023-02-13T06:21:35;15.23;;;8.63;;
17451;SDS011;8843;48.838;9.324;2023-02-13T06:24:03;15.87;;;8.97;;
17451;SDS011;8843;48.838;9.324;2023-02-13T06:26:30;14.70;;;9.03;;
17451;SDS011;8843;48.838;9.324;2023-02-13T06:28:57;15.27;;;9.43;;
17451;SDS011;8843;48.838;9.324;2023-02-13T06:31:24;15.03;;;8.27;;
17451;SDS011;8843;48.838;9.324;2023-02-13T06:33:51;13.50;;;8.47;;
17451;SDS011;8843;48.838;9.324;2023-02-13T06:36:18;16.97;;;9.83;;
17451;SDS011;8843;48.838;9.324;2023-02-13T06:38:46;14.93;;;8.77;;
17451;SDS011;8843;48.838;9.324;2023-02-13T06:41:13;24.87;;;12.80;;
17451;SDS011;8843;48.838;9.324;2023-02-13T06:43:40;18.17;;;9.83;;
17451;SDS011;8843;48.838;9.324;2023-02-13T06:46:08;17.57;;;10.67;;
17451;SDS011;8843;48.838;9.324;2023-02-13T06:48:41;21.37;;;11.20;;
17451;SDS011;8843;48.838;9.324;2023-02-13T06:51:10;22.53;;;12.13;;
17451;SDS011;8843;48.838;9.324;2023-02-13T06:53:36;19.13;;;10.30;;
17451;SDS011;8843;48.838;9.324;2023-02-13T06:56:05;18.10;;;10.97;;
17451;SDS011;8843;48.838;9.324;2023-02-13T06:58:32;18.23;;;10.70;;
17451;SDS011;8843;48.838;9.324;2023-02-13T07:00:59;19.50;;;10.67;;
17451;SDS011;8843;48.838;9.324;2023-02-13T07:03:26;19.07;;;10.83;;
17451;SDS011;8843;48.838;9.324;2023-02-13T07:05:53;18.97;;;10.93;;
17451;SDS011;8843;48.838;9.324;2023-02-13T07:08:20;17.70;;;10.43;;
17451;SDS011;8843;48.838;9.324;2023-02-13T07:10:47;17.53;;;10.63;;
17451;SDS011;8843;48.838;9.324;2023-02-13T07:13:15;15.67;;;9.87;;
17451;SDS011;8843;48.838;9.324;2023-02-13T07:15:42;17.77;;;10.57;;
17451;SDS011;8843;48.838;9.324;2023-02-13T07:18:09;17.07;;;10.37;;
17451;SDS011;8843;48.838;9.324;2023-02-13T07:20:36;19.60;;;10.83;;
17451;SDS011;8843;48.838;9.324;2023-02-13T07:23:03;22.27;;;12.47;;
17451;SDS011;8843;48.838;9.324;2023-02-13T07:25:31;18.43;;;11.07;;
17451;SDS011;8843;48.838;9.324;2023-02-13T07:28:00;19.13;;;10.30;;
17451;SDS011;8843;48.838;9.324;2023-02-13T07:30:29;17.90;;;10.47;;
17451;SDS011;8843;48.838;9.324;2023-02-13T07:32:59;19.17;;;10.67;;
17451;SDS011;8843;48.838;9.324;2023-02-13T07:35:27;16.53;;;10.53;;
17451;SDS011;8843;48.838;9.324;2023-02-13T07:37:54;17.33;;;10.00;;
17451;SDS011;8843;48.838;9.324;2023-02-13T07:40:21;19.67;;;11.13;;
17451;SDS011;8843;48.838;9.324;2023-02-13T07:42:48;19.33;;;10.90;;
17451;SDS011;8843;48.838;9.324;2023-02-13T07:45:15;17.93;;;10.63;;
17451;SDS011;8843;48.838;9.324;2023-02-13T07:47:43;18.17;;;11.47;;
17451;SDS011;8843;48.838;9.324;2023-02-13T07:50:10;17.03;;;10.77;;
17451;SDS011;8843;48.838;9.324;2023-02-13T07:52:38;17.63;;;10.83;;
17451;SDS011;8843;48.838;9.324;2023-02-13T07:55:05;21.27;;;12.10;;
17451;SDS011;8843;48.838;9.324;2023-02-13T07:57:32;22.57;;;11.33;;
17451;SDS011;8843;48.838;9.324;2023-02-13T07:59:59;18.33;;;10.47;;
17451;SDS011;8843;48.838;9.324;2023-02-13T08:02:26;19.33;;;11.70;;
17451;SDS011;8843;48.838;9.324;2023-02-13T08:04:54;20.93;;;11.77;;
17451;SDS011;8843;48.838;9.324;2023-02-13T08:07:21;17.73;;;10.93;;
17451;SDS011;8843;48.838;9.324;2023-02-13T08:09:48;24.53;;;13.03;;
17451;SDS011;8843;48.838;9.324;2023-02-13T08:12:33;20.87;;;11.77;;
17451;SDS011;8843;48.838;9.324;2023-02-13T08:15:01;19.73;;;11.03;;
17451;SDS011;8843;48.838;9.324;2023-02-13T08:17:29;24.93;;;11.27;;
17451;SDS011;8843;48.838;9.324;2023-02-13T08:19:57;21.93;;;12.57;;
17451;SDS011;8843;48.838;9.324;2023-02-13T08:22:24;25.47;;;13.63;;
17451;SDS011;8843;48.838;9.324;2023-02-13T08:24:51;24.53;;;13.10;;
17451;SDS011;8843;48.838;9.324;2023-02-13T08:27:18;24.43;;;12.73;;
17451;SDS011;8843;48.838;9.324;2023-02-13T08:29:45;23.80;;;13.33;;
17451;SDS011;8843;48.838;9.324;2023-02-13T08:32:11;24.37;;;13.70;;
17451;SDS011;8843;48.838;9.324;2023-02-13T08:34:38;23.37;;;13.10;;
17451;SDS011;8843;48.838;9.324;2023-02-13T08:37:06;19.97;;;11.30;;
17451;SDS011;8843;48.838;9.324;2023-02-13T08:39:33;25.53;;;13.83;;
17451;SDS011;8843;48.838;9.324;2023-02-13T08:42:00;22.93;;;12.23;;
17451;SDS011;8843;48.838;9.324;2023-02-13T08:44:27;23.37;;;13.57;;
17451;SDS011;8843;48.838;9.324;2023-02-13T08:46:54;21.33;;;12.40;;
17451;SDS011;8843;48.838;9.324;2023-02-13T08:49:21;23.10;;;13.37;;
17451;SDS011;8843;48.838;9.324;2023-02-13T08:51:48;22.00;;;12.70;;
17451;SDS011;8843;48.838;9.324;2023-02-13T08:54:16;21.50;;;12.90;;
17451;SDS011;8843;48.838;9.324;2023-02-13T08:56:43;20.17;;;12.73;;
17451;SDS011;8843;48.838;9.324;2023-02-13T08:59:10;19.83;;;12.43;;
17451;SDS011;8843;48.838;9.324;2023-02-13T09:01:37;20.93;;;12.10;;
17451;SDS011;8843;48.838;9.324;2023-02-13T09:04:04;17.27;;;11.00;;
17451;SDS011;8843;48.838;9.324;2023-02-13T09:06:31;18.23;;;11.10;;
17451;SDS011;8843;48.838;9.324;2023-02-13T09:08:58;17.03;;;9.70;;
17451;SDS011;8843;48.838;9.324;2023-02-13T09:11:26;16.93;;;11.17;;
17451;SDS011;8843;48.838;9.324;2023-02-13T09:13:53;16.17;;;10.23;;
17451;SDS011;8843;48.838;9.324;2023-02-13T09:16:20;19.93;;;11.50;;
17451;SDS011;8843;48.838;9.324;2023-02-13T09:18:47;17.57;;;11.43;;
17451;SDS011;8843;48.838;9.324;2023-02-13T09:21:15;22.23;;;14.10;;
17451;SDS011;8843;48.838;9.324;2023-02-13T09:23:43;18.33;;;11.23;;
17451;SDS011;8843;48.838;9.324;2023-02-13T09:26:11;19.73;;;11.37;;
17451;SDS011;8843;48.838;9.324;2023-02-13T09:28:40;18.17;;;11.43;;
17451;SDS011;8843;48.838;9.324;2023-02-13T09:31:08;21.10;;;11.70;;
17451;SDS011;8843;48.838;9.324;2023-02-13T09:33:36;16.53;;;10.97;;
17451;SDS011;8843;48.838;9.324;2023-02-13T09:36:03;15.33;;;10.47;;
17451;SDS011;8843;48.838;9.324;2023-02-13T09:38:31;17.00;;;10.60;;
17451;SDS011;8843;48.838;9.324;2023-02-13T09:40:58;15.40;;;10.37;;
17451;SDS011;8843;48.838;9.324;2023-02-13T09:43:29;20.43;;;12.87;;
17451;SDS011;8843;48.838;9.324;2023-02-13T09:45:59;15.10;;;10.37;;
17451;SDS011;8843;48.838;9.324;2023-02-13T09:48:30;21.53;;;11.23;;
17451;SDS011;8843;48.838;9.324;2023-02-13T09:50:59;14.70;;;10.07;;
17451;SDS011;8843;48.838;9.324;2023-02-13T09:53:27;16.37;;;10.73;;
17451;SDS011;8843;48.838;9.324;2023-02-13T09:55:59;16.90;;;10.17;;
17451;SDS011;8843;48.838;9.324;2023-02-13T09:58:37;15.23;;;8.97;;
17451;SDS011;8843;48.838;9.324;2023-02-13T10:01:15;14.03;;;8.97;;
17451;SDS011;8843;48.838;9.324;2023-02-13T10:03:46;14.37;;;9.17;;
17451;SDS011;8843;48.838;9.324;2023-02-13T10:06:18;14.77;;;8.97;;
17451;SDS011;8843;48.838;9.324;2023-02-13T10:09:05;15.77;;;9.30;;
17451;SDS011;8843;48.838;9.324;2023-02-13T10:14:40;13.80;;;10.23;;
17451;SDS011;8843;48.838;9.324;2023-02-13T10:17:15;13.23;;;9.33;;
17451;SDS011;8843;48.838;9.324;2023-02-13T10:19:47;16.93;;;9.73;;
17451;SDS011;8843;48.838;9.324;2023-02-13T10:22:20;14.30;;;8.43;;
17451;SDS011;8843;48.838;9.324;2023-02-13T10:24:51;12.97;;;8.43;;
17451;SDS011;8843;48.838;9.324;2023-02-13T10:27:23;12.63;;;9.07;;
17451;SDS011;8843;48.838;9.324;2023-02-13T10:29:52;13.47;;;8.97;;
17451;SDS011;8843;48.838;9.324;2023-02-13T10:32:40;15.00;;;9.43;;
17451;SDS011;8843;48.838;9.324;2023-02-13T10:35:18;17.27;;;10.33;;
17451;SDS011;8843;48.838;9.324;2023-02-13T10:37:48;13.57;;;9.13;;
17451;SDS011;8843;48.838;9.324;2023-02-13T10:40:19;17.20;;;10.03;;
17451;SDS011;8843;48.838;9.324;2023-02-13T10:42:48;16.30;;;10.07;;
17451;SDS011;8843;48.838;9.324;2023-02-13T10:45:26;16.60;;;10.83;;
17451;SDS011;8843;48.838;9.324;2023-02-13T10:48:09;16.30;;;11.43;;
17451;SDS011;8843;48.838;9.324;2023-02-13T10:50:46;15.63;;;10.37;;
17451;SDS011;8843;48.838;9.324;2023-02-13T10:53:27;15.43;;;9.47;;
17451;SDS011;8843;48.838;9.324;2023-02-13T10:56:09;15.30;;;9.43;;
17451;SDS011;8843;48.838;9.324;2023-02-13T10:58:50;14.00;;;9.93;;
17451;SDS011;8843;48.838;9.324;2023-02-13T11:01:30;15.00;;;9.00;;
17451;SDS011;8843;48.838;9.324;2023-02-13T11:04:04;14.93;;;8.87;;
17451;SDS011;8843;48.838;9.324;2023-02-13T11:06:33;14.27;;;8.77;;
17451;SDS011;8843;48.838;9.324;2023-02-13T11:09:03;16.83;;;8.93;;
17451;SDS011;8843;48.838;9.324;2023-02-13T11:11:32;16.27;;;8.87;;
17451;SDS011;8843;48.838;9.324;2023-02-13T11:14:09;14.13;;;9.93;;
17451;SDS011;8843;48.838;9.324;2023-02-13T11:16:38;12.73;;;9.00;;
17451;SDS011;8843;48.838;9.324;2023-02-13T11:19:14;12.80;;;9.23;;
17451;SDS011;8843;48.838;9.324;2023-02-13T11:21:43;14.93;;;9.23;;
17451;SDS011;8843;48.838;9.324;2023-02-13T11:24:18;13.43;;;8.97;;
17451;SDS011;8843;48.838;9.324;2023-02-13T11:26:49;12.90;;;9.27;;
17451;SDS011;8843;48.838;9.324;2023-02-13T11:29:20;12.17;;;8.87;;
17451;SDS011;8843;48.838;9.324;2023-02-13T11:31:59;14.27;;;8.53;;
17451;SDS011;8843;48.838;9.324;2023-02-13T11:34:32;14.47;;;8.80;;
17451;SDS011;8843;48.838;9.324;2023-02-13T11:37:16;12.53;;;8.93;;
17451;SDS011;8843;48.838;9.324;2023-02-13T11:39:48;11.23;;;7.73;;
17451;SDS011;8843;48.838;9.324;2023-02-13T11:42:18;9.07;;;6.80;;
17451;SDS011;8843;48.838;9.324;2023-02-13T11:44:50;11.23;;;8.43;;
17451;SDS011;8843;48.838;9.324;2023-02-13T11:47:29;14.93;;;9.77;;
17451;SDS011;8843;48.838;9.324;2023-02-13T11:50:00;11.77;;;7.83;;
17451;SDS011;8843;48.838;9.324;2023-02-13T11:52:28;12.03;;;8.63;;
17451;SDS011;8843;48.838;9.324;2023-02-13T11:54:57;11.13;;;8.10;;
17451;SDS011;8843;48.838;9.324;2023-02-13T11:57:27;10.00;;;7.77;;
17451;SDS011;8843;48.838;9.324;2023-02-13T11:59:57;10.87;;;7.73;;
17451;SDS011;8843;48.838;9.324;2023-02-13T12:02:25;9.83;;;7.23;;
17451;SDS011;8843;48.838;9.324;2023-02-13T12:04:54;10.37;;;7.27;;
17451;SDS011;8843;48.838;9.324;2023-02-13T12:07:40;8.73;;;6.67;;
17451;SDS011;8843;48.838;9.324;2023-02-13T12:12:45;9.57;;;6.33;;
17451;SDS011;8843;48.838;9.324;2023-02-13T12:15:19;9.83;;;6.87;;
17451;SDS011;8843;48.838;9.324;2023-02-13T12:17:49;10.43;;;7.17;;
17451;SDS011;8843;48.838;9.324;2023-02-13T12:20:27;9.37;;;7.17;;
17451;SDS011;8843;48.838;9.324;2023-02-13T12:23:08;8.80;;;6.17;;
17451;SDS011;8843;48.838;9.324;2023-02-13T12:25:47;12.23;;;6.90;;
17451;SDS011;8843;48.838;9.324;2023-02-13T12:28:27;7.97;;;5.43;;
17451;SDS011;8843;48.838;9.324;2023-02-13T12:31:13;6.67;;;4.60;;
17451;SDS011;8843;48.838;9.324;2023-02-13T12:37:11;8.00;;;4.90;;
17451;SDS011;8843;48.838;9.324;2023-02-13T12:39:47;5.53;;;4.53;;
17451;SDS011;8843;48.838;9.324;2023-02-13T12:42:28;8.67;;;5.30;;
17451;SDS011;8843;48.838;9.324;2023-02-13T12:45:10;5.63;;;4.47;;
17451;SDS011;8843;48.838;9.324;2023-02-13T12:47:54;6.97;;;4.77;;
17451;SDS011;8843;48.838;9.324;2023-02-13T12:50:34;7.63;;;5.10;;
17451;SDS011;8843;48.838;9.324;2023-02-13T12:53:18;6.33;;;4.40;;
17451;SDS011;8843;48.838;9.324;2023-02-13T12:56:01;6.73;;;5.30;;
17451;SDS011;8843;48.838;9.324;2023-02-13T12:58:56;6.30;;;4.87;;
17451;SDS011;8843;48.838;9.324;2023-02-13T13:01:35;6.10;;;4.97;;
17451;SDS011;8843;48.838;9.324;2023-02-13T13:04:30;5.97;;;4.13;;
17451;SDS011;8843;48.838;9.324;2023-02-13T13:10:15;5.60;;;4.47;;
17451;SDS011;8843;48.838;9.324;2023-02-13T13:12:52;6.80;;;5.00;;
17451;SDS011;8843;48.838;9.324;2023-02-13T13:15:29;6.60;;;4.87;;
17451;SDS011;8843;48.838;9.324;2023-02-13T13:18:06;7.20;;;5.43;;
17451;SDS011;8843;48.838;9.324;2023-02-13T13:20:51;8.27;;;5.17;;
17451;SDS011;8843;48.838;9.324;2023-02-13T13:23:26;5.60;;;4.77;;
17451;SDS011;8843;48.838;9.324;2023-02-13T13:26:00;6.70;;;4.93;;
17451;SDS011;8843;48.838;9.324;2023-02-13T13:28:37;6.30;;;4.73;;
17451;SDS011;8843;48.838;9.324;2023-02-13T13:31:07;5.37;;;4.70;;
17451;SDS011;8843;48.838;9.324;2023-02-13T13:33:35;7.27;;;4.67;;
17451;SDS011;8843;48.838;9.324;2023-02-13T13:36:08;6.03;;;5.33;;
17451;SDS011;8843;48.838;9.324;2023-02-13T13:38:44;6.27;;;4.87;;
17451;SDS011;8843;48.838;9.324;2023-02-13T13:41:17;5.33;;;4.57;;
17451;SDS011;8843;48.838;9.324;2023-02-13T13:44:03;6.77;;;5.57;;
17451;SDS011;8843;48.838;9.324;2023-02-13T13:46:47;8.27;;;5.33;;
17451;SDS011;8843;48.838;9.324;2023-02-13T13:49:23;6.53;;;4.73;;
17451;SDS011;8843;48.838;9.324;2023-02-13T13:52:09;7.13;;;5.40;;
17451;SDS011;8843;48.838;9.324;2023-02-13T13:54:44;8.43;;;5.37;;
17451;SDS011;8843;48.838;9.324;2023-02-13T13:57:15;6.20;;;5.07;;
17451;SDS011;8843;48.838;9.324;2023-02-13T14:00:01;6.23;;;5.37;;
17451;SDS011;8843;48.838;9.324;2023-02-13T14:02:49;5.77;;;4.93;;
17451;SDS011;8843;48.838;9.324;2023-02-13T14:05:22;6.40;;;4.57;;
17451;SDS011;8843;48.838;9.324;2023-02-13T14:07:54;5.67;;;4.60;;
17451;SDS011;8843;48.838;9.324;2023-02-13T14:13:33;6.57;;;4.70;;
17451;SDS011;8843;48.838;9.324;2023-02-13T14:16:03;7.27;;;5.37;;
17451;SDS011;8843;48.838;9.324;2023-02-13T14:18:32;8.43;;;5.10;;
17451;SDS011;8843;48.838;9.324;2023-02-13T14:21:00;5.43;;;4.63;;
17451;SDS011;8843;48.838;9.324;2023-02-13T14:26:28;6.17;;;4.73;;
17451;SDS011;8843;48.838;9.324;2023-02-13T14:31:56;6.00;;;4.67;;
17451;SDS011;8843;48.838;9.324;2023-02-13T14:34:28;6.27;;;4.67;;
17451;SDS011;8843;48.838;9.324;2023-02-13T14:37:11;6.63;;;4.80;;
17451;SDS011;8843;48.838;9.324;2023-02-13T14:42:50;6.63;;;5.10;;
17451;SDS011;8843;48.838;9.324;2023-02-13T14:45:21;5.77;;;4.63;;
17451;SDS011;8843;48.838;9.324;2023-02-13T14:47:54;7.20;;;5.47;;
17451;SDS011;8843;48.838;9.324;2023-02-13T14:50:23;9.47;;;5.37;;
17451;SDS011;8843;48.838;9.324;2023-02-13T14:52:54;6.13;;;4.70;;
17451;SDS011;8843;48.838;9.324;2023-02-13T14:55:28;7.47;;;6.00;;
17451;SDS011;8843;48.838;9.324;2023-02-13T14:58:00;9.13;;;5.80;;
17451;SDS011;8843;48.838;9.324;2023-02-13T15:00:33;9.10;;;6.00;;
17451;SDS011;8843;48.838;9.324;2023-02-13T15:03:11;9.63;;;6.30;;
17451;SDS011;8843;48.838;9.324;2023-02-13T15:05:49;7.47;;;5.67;;
17451;SDS011;8843;48.838;9.324;2023-02-13T15:08:18;8.87;;;5.90;;
17451;SDS011;8843;48.838;9.324;2023-02-13T15:10:49;6.93;;;5.07;;
17451;SDS011;8843;48.838;9.324;2023-02-13T15:13:17;7.07;;;5.40;;
17451;SDS011;8843;48.838;9.324;2023-02-13T15:15:50;7.87;;;5.50;;
17451;SDS011;8843;48.838;9.324;2023-02-13T15:18:20;6.10;;;4.83;;
17451;SDS011;8843;48.838;9.324;2023-02-13T15:20:50;8.53;;;6.13;;
17451;SDS011;8843;48.838;9.324;2023-02-13T15:23:20;7.77;;;5.53;;
17451;SDS011;8843;48.838;9.324;2023-02-13T15:25:54;7.67;;;5.90;;
17451;SDS011;8843;48.838;9.324;2023-02-13T15:28:22;7.77;;;5.60;;
17451;SDS011;8843;48.838;9.324;2023-02-13T15:30:54;7.83;;;5.73;;
17451;SDS011;8843;48.838;9.324;2023-02-13T15:33:24;9.47;;;5.80;;
17451;SDS011;8843;48.838;9.324;2023-02-13T15:35:54;10.00;;;6.23;;
17451;SDS011;8843;48.838;9.324;2023-02-13T15:38:23;8.43;;;5.73;;
17451;SDS011;8843;48.838;9.324;2023-02-13T15:40:53;9.63;;;6.93;;
17451;SDS011;8843;48.838;9.324;2023-02-13T15:43:24;8.43;;;6.27;;
17451;SDS011;8843;48.838;9.324;2023-02-13T15:45:58;7.97;;;5.63;;